sensor_id;sensor_type;location;lat;lon;timestamp;temperature;humidity
69776;DHT22;57049;51.450;-2.516;2023-07-13T00:00:11;14.91;93.47
69776;DHT22;57049;51.450;-2.516;2023-07-13T00:02:36;14.93;93.35
69776;DHT22;57049;51.450;-2.516;2023-07-13T00:05:02;14.84;93.46
69776;DHT22;57049;51.450;-2.516;2023-07-13T00:07:28;14.84;93.58
69776;DHT22;57049;51.450;-2.516;2023-07-13T00:09:53;14.85;93.66
69776;DHT22;57049;51.450;-2.516;2023-07-13T00:12:25;14.87;93.84
69776;DHT22;57049;51.450;-2.516;2023-07-13T00:14:51;14.90;93.84
69776;DHT22;57049;51.450;-2.516;2023-07-13T00:17:17;14.87;94.02
69776;DHT22;57049;51.450;-2.516;2023-07-13T00:19:42;14.85;93.98
69776;DHT22;57049;51.450;-2.516;2023-07-13T00:22:08;14.80;94.23
69776;DHT22;57049;51.450;-2.516;2023-07-13T00:24:33;14.76;94.39
69776;DHT22;57049;51.450;-2.516;2023-07-13T00:27:01;14.73;94.27
69776;DHT22;57049;51.450;-2.516;2023-07-13T00:29:26;14.67;94.31
69776;DHT22;57049;51.450;-2.516;2023-07-13T00:31:52;14.72;94.46
69776;DHT22;57049;51.450;-2.516;2023-07-13T00:34:17;14.79;94.32
69776;DHT22;57049;51.450;-2.516;2023-07-13T00:36:43;14.83;94.40
69776;DHT22;57049;51.450;-2.516;2023-07-13T00:39:08;14.93;94.59
69776;DHT22;57049;51.450;-2.516;2023-07-13T00:41:34;14.94;94.70
69776;DHT22;57049;51.450;-2.516;2023-07-13T00:44:02;15.00;94.90
69776;DHT22;57049;51.450;-2.516;2023-07-13T00:46:30;15.04;94.76
69776;DHT22;57049;51.450;-2.516;2023-07-13T00:49:01;15.03;94.97
69776;DHT22;57049;51.450;-2.516;2023-07-13T00:51:36;14.97;95.33
69776;DHT22;57049;51.450;-2.516;2023-07-13T00:54:06;14.94;95.32
69776;DHT22;57049;51.450;-2.516;2023-07-13T00:56:35;14.93;95.21
69776;DHT22;57049;51.450;-2.516;2023-07-13T00:59:03;14.88;95.01
69776;DHT22;57049;51.450;-2.516;2023-07-13T01:01:30;14.87;95.07
69776;DHT22;57049;51.450;-2.516;2023-07-13T01:03:55;14.80;94.82
69776;DHT22;57049;51.450;-2.516;2023-07-13T01:06:22;14.72;94.99
69776;DHT22;57049;51.450;-2.516;2023-07-13T01:08:47;14.62;95.26
69776;DHT22;57049;51.450;-2.516;2023-07-13T01:11:18;14.53;95.64
69776;DHT22;57049;51.450;-2.516;2023-07-13T01:13:44;14.50;95.58
69776;DHT22;57049;51.450;-2.516;2023-07-13T01:16:26;14.55;95.81
69776;DHT22;57049;51.450;-2.516;2023-07-13T01:18:52;14.57;96.14
69776;DHT22;57049;51.450;-2.516;2023-07-13T01:21:18;14.57;96.26
69776;DHT22;57049;51.450;-2.516;2023-07-13T01:23:44;14.57;96.46
69776;DHT22;57049;51.450;-2.516;2023-07-13T01:26:10;14.62;96.11
69776;DHT22;57049;51.450;-2.516;2023-07-13T01:28:36;14.69;95.97
69776;DHT22;57049;51.450;-2.516;2023-07-13T01:31:03;14.73;96.03
69776;DHT22;57049;51.450;-2.516;2023-07-13T01:33:29;14.67;96.14
69776;DHT22;57049;51.450;-2.516;2023-07-13T01:35:55;14.69;96.16
69776;DHT22;57049;51.450;-2.516;2023-07-13T01:38:23;14.67;96.19
69776;DHT22;57049;51.450;-2.516;2023-07-13T01:40:51;14.63;96.27
69776;DHT22;57049;51.450;-2.516;2023-07-13T01:43:17;14.64;96.17
69776;DHT22;57049;51.450;-2.516;2023-07-13T01:45:42;14.64;96.24
69776;DHT22;57049;51.450;-2.516;2023-07-13T01:48:09;14.63;96.37
69776;DHT22;57049;51.450;-2.516;2023-07-13T01:50:35;14.64;96.40
69776;DHT22;57049;51.450;-2.516;2023-07-13T01:53:01;14.57;96.64
69776;DHT22;57049;51.450;-2.516;2023-07-13T01:55:27;14.57;96.56
69776;DHT22;57049;51.450;-2.516;2023-07-13T01:57:53;14.56;96.46
69776;DHT22;57049;51.450;-2.516;2023-07-13T02:00:18;14.56;96.25
69776;DHT22;57049;51.450;-2.516;2023-07-13T02:02:44;14.52;96.22
69776;DHT22;57049;51.450;-2.516;2023-07-13T02:05:11;14.47;96.25
69776;DHT22;57049;51.450;-2.516;2023-07-13T02:07:37;14.43;96.18
69776;DHT22;57049;51.450;-2.516;2023-07-13T02:10:04;14.44;95.82
69776;DHT22;57049;51.450;-2.516;2023-07-13T02:12:30;14.47;95.60
69776;DHT22;57049;51.450;-2.516;2023-07-13T02:14:55;14.34;95.76
69776;DHT22;57049;51.450;-2.516;2023-07-13T02:17:21;14.29;96.08
69776;DHT22;57049;51.450;-2.516;2023-07-13T02:19:46;14.25;95.93
69776;DHT22;57049;51.450;-2.516;2023-07-13T02:22:12;14.12;96.02
69776;DHT22;57049;51.450;-2.516;2023-07-13T02:24:37;14.04;96.01
69776;DHT22;57049;51.450;-2.516;2023-07-13T02:27:04;13.95;96.21
69776;DHT22;57049;51.450;-2.516;2023-07-13T02:29:29;13.86;96.17
69776;DHT22;57049;51.450;-2.516;2023-07-13T02:31:55;13.81;96.16
69776;DHT22;57049;51.450;-2.516;2023-07-13T02:34:20;13.79;96.20
69776;DHT22;57049;51.450;-2.516;2023-07-13T02:36:46;13.71;96.45
69776;DHT22;57049;51.450;-2.516;2023-07-13T02:39:12;13.68;96.58
69776;DHT22;57049;51.450;-2.516;2023-07-13T02:41:38;13.67;96.61
69776;DHT22;57049;51.450;-2.516;2023-07-13T02:44:04;13.62;96.75
69776;DHT22;57049;51.450;-2.516;2023-07-13T02:46:34;13.65;96.61
69776;DHT22;57049;51.450;-2.516;2023-07-13T02:49:00;13.70;96.58
69776;DHT22;57049;51.450;-2.516;2023-07-13T02:51:26;13.68;96.43
69776;DHT22;57049;51.450;-2.516;2023-07-13T02:53:52;13.67;96.69
69776;DHT22;57049;51.450;-2.516;2023-07-13T02:56:21;13.65;96.74
69776;DHT22;57049;51.450;-2.516;2023-07-13T02:58:47;13.58;96.70
69776;DHT22;57049;51.450;-2.516;2023-07-13T03:01:13;13.54;96.85
69776;DHT22;57049;51.450;-2.516;2023-07-13T03:03:41;13.48;96.92
69776;DHT22;57049;51.450;-2.516;2023-07-13T03:06:07;13.44;96.92
69776;DHT22;57049;51.450;-2.516;2023-07-13T03:08:33;13.34;97.08
69776;DHT22;57049;51.450;-2.516;2023-07-13T03:11:06;13.31;97.50
69776;DHT22;57049;51.450;-2.516;2023-07-13T03:13:32;13.24;97.48
69776;DHT22;57049;51.450;-2.516;2023-07-13T03:15:58;13.19;97.41
69776;DHT22;57049;51.450;-2.516;2023-07-13T03:18:26;13.14;97.42
69776;DHT22;57049;51.450;-2.516;2023-07-13T03:20:52;13.13;97.46
69776;DHT22;57049;51.450;-2.516;2023-07-13T03:23:18;13.09;97.59
69776;DHT22;57049;51.450;-2.516;2023-07-13T03:25:44;13.14;97.55
69776;DHT22;57049;51.450;-2.516;2023-07-13T03:28:11;13.14;97.54
69776;DHT22;57049;51.450;-2.516;2023-07-13T03:30:36;13.13;97.71
69776;DHT22;57049;51.450;-2.516;2023-07-13T03:33:02;13.13;97.68
69776;DHT22;57049;51.450;-2.516;2023-07-13T03:35:27;13.20;97.88
69776;DHT22;57049;51.450;-2.516;2023-07-13T03:37:52;13.23;97.73
69776;DHT22;57049;51.450;-2.516;2023-07-13T03:40:18;13.27;97.45
69776;DHT22;57049;51.450;-2.516;2023-07-13T03:42:44;13.26;97.51
69776;DHT22;57049;51.450;-2.516;2023-07-13T03:45:09;13.24;97.54
69776;DHT22;57049;51.450;-2.516;2023-07-13T03:47:35;13.36;97.34
69776;DHT22;57049;51.450;-2.516;2023-07-13T03:50:00;13.28;97.41
69776;DHT22;57049;51.450;-2.516;2023-07-13T03:52:26;13.26;97.65
69776;DHT22;57049;51.450;-2.516;2023-07-13T03:54:51;13.24;97.67
69776;DHT22;57049;51.450;-2.516;2023-07-13T03:57:18;13.31;97.87
69776;DHT22;57049;51.450;-2.516;2023-07-13T03:59:43;13.39;97.76
69776;DHT22;57049;51.450;-2.516;2023-07-13T04:02:09;13.43;97.76
69776;DHT22;57049;51.450;-2.516;2023-07-13T04:04:35;13.40;97.66
69776;DHT22;57049;51.450;-2.516;2023-07-13T04:07:01;13.36;97.66
69776;DHT22;57049;51.450;-2.516;2023-07-13T04:09:26;13.31;97.67
69776;DHT22;57049;51.450;-2.516;2023-07-13T04:11:52;13.26;97.80
69776;DHT22;57049;51.450;-2.516;2023-07-13T04:14:17;13.24;97.77
69776;DHT22;57049;51.450;-2.516;2023-07-13T04:16:43;13.24;98.02
69776;DHT22;57049;51.450;-2.516;2023-07-13T04:19:09;13.28;98.11
69776;DHT22;57049;51.450;-2.516;2023-07-13T04:21:36;13.27;97.98
69776;DHT22;57049;51.450;-2.516;2023-07-13T04:24:02;13.34;97.97
69776;DHT22;57049;51.450;-2.516;2023-07-13T04:26:30;13.36;98.11
69776;DHT22;57049;51.450;-2.516;2023-07-13T04:28:56;13.41;98.10
69776;DHT22;57049;51.450;-2.516;2023-07-13T04:31:22;13.43;98.01
69776;DHT22;57049;51.450;-2.516;2023-07-13T04:33:48;13.50;98.06
69776;DHT22;57049;51.450;-2.516;2023-07-13T04:36:15;13.53;98.13
69776;DHT22;57049;51.450;-2.516;2023-07-13T04:38:40;13.58;98.13
69776;DHT22;57049;51.450;-2.516;2023-07-13T04:41:08;13.60;98.32
69776;DHT22;57049;51.450;-2.516;2023-07-13T04:43:34;13.70;98.21
69776;DHT22;57049;51.450;-2.516;2023-07-13T04:46:08;13.74;98.29
69776;DHT22;57049;51.450;-2.516;2023-07-13T04:48:35;13.86;98.20
69776;DHT22;57049;51.450;-2.516;2023-07-13T04:51:01;13.94;98.14
69776;DHT22;57049;51.450;-2.516;2023-07-13T04:53:28;14.02;98.00
69776;DHT22;57049;51.450;-2.516;2023-07-13T04:55:54;14.05;98.06
69776;DHT22;57049;51.450;-2.516;2023-07-13T04:58:21;14.15;97.92
69776;DHT22;57049;51.450;-2.516;2023-07-13T05:00:47;14.19;97.88
69776;DHT22;57049;51.450;-2.516;2023-07-13T05:03:12;14.25;97.80
69776;DHT22;57049;51.450;-2.516;2023-07-13T05:05:38;14.28;97.66
69776;DHT22;57049;51.450;-2.516;2023-07-13T05:08:03;14.36;97.45
69776;DHT22;57049;51.450;-2.516;2023-07-13T05:10:29;14.39;97.47
69776;DHT22;57049;51.450;-2.516;2023-07-13T05:12:54;14.37;97.25
69776;DHT22;57049;51.450;-2.516;2023-07-13T05:15:21;14.47;97.33
69776;DHT22;57049;51.450;-2.516;2023-07-13T05:17:48;14.49;97.17
69776;DHT22;57049;51.450;-2.516;2023-07-13T05:20:14;14.55;97.20
69776;DHT22;57049;51.450;-2.516;2023-07-13T05:22:41;14.64;96.90
69776;DHT22;57049;51.450;-2.516;2023-07-13T05:25:07;14.79;96.88
69776;DHT22;57049;51.450;-2.516;2023-07-13T05:27:34;15.00;96.71
69776;DHT22;57049;51.450;-2.516;2023-07-13T05:30:00;15.15;96.35
69776;DHT22;57049;51.450;-2.516;2023-07-13T05:32:25;15.24;96.23
69776;DHT22;57049;51.450;-2.516;2023-07-13T05:34:51;15.30;96.03
69776;DHT22;57049;51.450;-2.516;2023-07-13T05:37:17;15.31;95.64
69776;DHT22;57049;51.450;-2.516;2023-07-13T05:39:43;15.35;95.84
69776;DHT22;57049;51.450;-2.516;2023-07-13T05:42:09;15.30;95.71
69776;DHT22;57049;51.450;-2.516;2023-07-13T05:44:34;15.21;95.83
69776;DHT22;57049;51.450;-2.516;2023-07-13T05:46:59;15.14;95.82
69776;DHT22;57049;51.450;-2.516;2023-07-13T05:49:25;15.05;95.84
69776;DHT22;57049;51.450;-2.516;2023-07-13T05:51:50;15.07;96.09
69776;DHT22;57049;51.450;-2.516;2023-07-13T05:54:16;15.14;96.04
69776;DHT22;57049;51.450;-2.516;2023-07-13T05:56:42;15.34;96.07
69776;DHT22;57049;51.450;-2.516;2023-07-13T05:59:07;15.67;95.58
69776;DHT22;57049;51.450;-2.516;2023-07-13T06:01:33;15.72;95.42
69776;DHT22;57049;51.450;-2.516;2023-07-13T06:03:58;15.59;95.31
69776;DHT22;57049;51.450;-2.516;2023-07-13T06:06:24;15.49;95.31
69776;DHT22;57049;51.450;-2.516;2023-07-13T06:08:49;15.32;95.17
69776;DHT22;57049;51.450;-2.516;2023-07-13T06:11:21;15.38;95.11
69776;DHT22;57049;51.450;-2.516;2023-07-13T06:13:48;15.35;95.00
69776;DHT22;57049;51.450;-2.516;2023-07-13T06:16:14;15.45;94.89
69776;DHT22;57049;51.450;-2.516;2023-07-13T06:18:40;15.73;95.02
69776;DHT22;57049;51.450;-2.516;2023-07-13T06:21:08;16.13;94.67
69776;DHT22;57049;51.450;-2.516;2023-07-13T06:23:34;16.17;94.23
69776;DHT22;57049;51.450;-2.516;2023-07-13T06:25:59;16.27;93.83
69776;DHT22;57049;51.450;-2.516;2023-07-13T06:28:25;16.41;93.76
69776;DHT22;57049;51.450;-2.516;2023-07-13T06:30:50;16.56;93.34
69776;DHT22;57049;51.450;-2.516;2023-07-13T06:33:16;17.47;91.49
69776;DHT22;57049;51.450;-2.516;2023-07-13T06:35:42;17.42;90.99
69776;DHT22;57049;51.450;-2.516;2023-07-13T06:38:08;17.30;90.58
69776;DHT22;57049;51.450;-2.516;2023-07-13T06:40:33;17.26;90.32
69776;DHT22;57049;51.450;-2.516;2023-07-13T06:42:59;17.09;90.84
69776;DHT22;57049;51.450;-2.516;2023-07-13T06:45:24;17.02;91.12
69776;DHT22;57049;51.450;-2.516;2023-07-13T06:47:50;16.92;91.03
69776;DHT22;57049;51.450;-2.516;2023-07-13T06:50:15;16.81;91.16
69776;DHT22;57049;51.450;-2.516;2023-07-13T06:52:41;16.78;91.09
69776;DHT22;57049;51.450;-2.516;2023-07-13T06:55:06;16.72;91.92
69776;DHT22;57049;51.450;-2.516;2023-07-13T06:57:32;16.68;91.75
69776;DHT22;57049;51.450;-2.516;2023-07-13T06:59:58;16.68;91.98
69776;DHT22;57049;51.450;-2.516;2023-07-13T07:02:23;16.60;92.31
69776;DHT22;57049;51.450;-2.516;2023-07-13T07:04:49;16.47;92.83
69776;DHT22;57049;51.450;-2.516;2023-07-13T07:07:15;16.37;93.07
69776;DHT22;57049;51.450;-2.516;2023-07-13T07:09:40;16.17;93.07
69776;DHT22;57049;51.450;-2.516;2023-07-13T07:12:06;16.06;93.73
69776;DHT22;57049;51.450;-2.516;2023-07-13T07:14:32;15.97;93.85
69776;DHT22;57049;51.450;-2.516;2023-07-13T07:16:59;15.92;94.06
69776;DHT22;57049;51.450;-2.516;2023-07-13T07:19:25;15.99;94.44
69776;DHT22;57049;51.450;-2.516;2023-07-13T07:21:50;16.06;94.53
69776;DHT22;57049;51.450;-2.516;2023-07-13T07:24:15;16.09;94.67
69776;DHT22;57049;51.450;-2.516;2023-07-13T07:26:41;16.13;94.62
69776;DHT22;57049;51.450;-2.516;2023-07-13T07:29:07;16.07;94.74
69776;DHT22;57049;51.450;-2.516;2023-07-13T07:31:32;16.06;94.76
69776;DHT22;57049;51.450;-2.516;2023-07-13T07:33:57;15.97;94.89
69776;DHT22;57049;51.450;-2.516;2023-07-13T07:36:23;15.92;94.88
69776;DHT22;57049;51.450;-2.516;2023-07-13T07:38:48;15.86;94.87
69776;DHT22;57049;51.450;-2.516;2023-07-13T07:41:14;15.93;95.08
69776;DHT22;57049;51.450;-2.516;2023-07-13T07:43:39;15.97;94.93
69776;DHT22;57049;51.450;-2.516;2023-07-13T07:46:05;16.13;94.93
69776;DHT22;57049;51.450;-2.516;2023-07-13T07:48:31;16.18;94.95
69776;DHT22;57049;51.450;-2.516;2023-07-13T07:50:57;16.20;94.94
69776;DHT22;57049;51.450;-2.516;2023-07-13T07:53:22;16.26;95.07
69776;DHT22;57049;51.450;-2.516;2023-07-13T07:55:48;16.33;94.73
69776;DHT22;57049;51.450;-2.516;2023-07-13T07:58:14;16.34;94.89
69776;DHT22;57049;51.450;-2.516;2023-07-13T08:00:39;16.33;94.82
69776;DHT22;57049;51.450;-2.516;2023-07-13T08:03:05;16.41;94.62
69776;DHT22;57049;51.450;-2.516;2023-07-13T08:05:31;16.41;94.49
69776;DHT22;57049;51.450;-2.516;2023-07-13T08:07:57;16.41;94.66
69776;DHT22;57049;51.450;-2.516;2023-07-13T08:10:22;16.31;94.65
69776;DHT22;57049;51.450;-2.516;2023-07-13T08:12:48;16.28;94.23
69776;DHT22;57049;51.450;-2.516;2023-07-13T08:15:15;16.28;94.69
69776;DHT22;57049;51.450;-2.516;2023-07-13T08:17:42;16.28;94.82
69776;DHT22;57049;51.450;-2.516;2023-07-13T08:20:07;16.24;94.93
69776;DHT22;57049;51.450;-2.516;2023-07-13T08:22:34;16.20;94.79
69776;DHT22;57049;51.450;-2.516;2023-07-13T08:25:00;16.18;94.76
69776;DHT22;57049;51.450;-2.516;2023-07-13T08:27:27;16.12;94.88
69776;DHT22;57049;51.450;-2.516;2023-07-13T08:29:54;16.14;95.03
69776;DHT22;57049;51.450;-2.516;2023-07-13T08:32:21;16.05;95.10
69776;DHT22;57049;51.450;-2.516;2023-07-13T08:34:48;16.07;95.15
69776;DHT22;57049;51.450;-2.516;2023-07-13T08:37:14;16.12;95.25
69776;DHT22;57049;51.450;-2.516;2023-07-13T08:39:40;16.17;95.21
69776;DHT22;57049;51.450;-2.516;2023-07-13T08:45:03;16.26;95.20
69776;DHT22;57049;51.450;-2.516;2023-07-13T08:47:35;16.34;94.65
69776;DHT22;57049;51.450;-2.516;2023-07-13T08:50:03;16.47;94.32
69776;DHT22;57049;51.450;-2.516;2023-07-13T08:52:36;16.74;94.04
69776;DHT22;57049;51.450;-2.516;2023-07-13T08:55:20;16.79;94.15
69776;DHT22;57049;51.450;-2.516;2023-07-13T08:57:56;16.88;94.25
69776;DHT22;57049;51.450;-2.516;2023-07-13T09:03:26;17.23;94.25
69776;DHT22;57049;51.450;-2.516;2023-07-13T09:05:58;17.40;93.95
69776;DHT22;57049;51.450;-2.516;2023-07-13T09:14:42;18.11;92.39
69776;DHT22;57049;51.450;-2.516;2023-07-13T09:17:18;18.30;91.74
69776;DHT22;57049;51.450;-2.516;2023-07-13T09:19:47;18.48;91.56
69776;DHT22;57049;51.450;-2.516;2023-07-13T09:22:18;18.52;91.01
69776;DHT22;57049;51.450;-2.516;2023-07-13T09:24:54;18.51;90.46
69776;DHT22;57049;51.450;-2.516;2023-07-13T09:27:29;18.42;90.38
69776;DHT22;57049;51.450;-2.516;2023-07-13T09:30:30;18.30;89.55
69776;DHT22;57049;51.450;-2.516;2023-07-13T09:32:58;18.18;90.26
69776;DHT22;57049;51.450;-2.516;2023-07-13T09:35:27;18.14;89.74
69776;DHT22;57049;51.450;-2.516;2023-07-13T09:37:58;18.11;90.24
69776;DHT22;57049;51.450;-2.516;2023-07-13T09:40:30;17.91;89.46
69776;DHT22;57049;51.450;-2.516;2023-07-13T09:42:58;17.71;90.41
69776;DHT22;57049;51.450;-2.516;2023-07-13T09:45:29;17.46;90.39
69776;DHT22;57049;51.450;-2.516;2023-07-13T09:48:14;17.19;91.66
69776;DHT22;57049;51.450;-2.516;2023-07-13T09:50:41;16.98;91.85
69776;DHT22;57049;51.450;-2.516;2023-07-13T09:53:15;16.89;92.54
69776;DHT22;57049;51.450;-2.516;2023-07-13T09:55:42;16.92;91.79
69776;DHT22;57049;51.450;-2.516;2023-07-13T09:58:26;16.99;91.54
69776;DHT22;57049;51.450;-2.516;2023-07-13T10:01:00;17.08;91.74
69776;DHT22;57049;51.450;-2.516;2023-07-13T10:03:34;17.16;91.84
69776;DHT22;57049;51.450;-2.516;2023-07-13T10:06:17;17.26;91.51
69776;DHT22;57049;51.450;-2.516;2023-07-13T10:08:45;17.28;91.73
69776;DHT22;57049;51.450;-2.516;2023-07-13T10:11:19;17.45;91.49
69776;DHT22;57049;51.450;-2.516;2023-07-13T10:13:51;17.60;91.98
69776;DHT22;57049;51.450;-2.516;2023-07-13T10:16:19;17.91;91.54
69776;DHT22;57049;51.450;-2.516;2023-07-13T10:19:18;18.30;91.42
69776;DHT22;57049;51.450;-2.516;2023-07-13T10:22:00;18.55;90.65
69776;DHT22;57049;51.450;-2.516;2023-07-13T10:24:30;18.75;90.17
69776;DHT22;57049;51.450;-2.516;2023-07-13T10:29:50;19.06;88.50
69776;DHT22;57049;51.450;-2.516;2023-07-13T10:32:19;19.17;87.80
69776;DHT22;57049;51.450;-2.516;2023-07-13T10:34:47;19.28;86.47
69776;DHT22;57049;51.450;-2.516;2023-07-13T10:37:22;19.40;84.75
69776;DHT22;57049;51.450;-2.516;2023-07-13T10:39:50;19.37;83.83
69776;DHT22;57049;51.450;-2.516;2023-07-13T10:42:28;19.40;83.59
69776;DHT22;57049;51.450;-2.516;2023-07-13T10:44:54;19.38;84.29
69776;DHT22;57049;51.450;-2.516;2023-07-13T10:47:20;19.50;83.85
69776;DHT22;57049;51.450;-2.516;2023-07-13T10:49:54;19.58;82.57
69776;DHT22;57049;51.450;-2.516;2023-07-13T10:52:42;19.75;81.83
69776;DHT22;57049;51.450;-2.516;2023-07-13T10:55:38;19.95;82.32
69776;DHT22;57049;51.450;-2.516;2023-07-13T10:58:15;20.28;82.98
69776;DHT22;57049;51.450;-2.516;2023-07-13T11:01:09;20.65;82.11
69776;DHT22;57049;51.450;-2.516;2023-07-13T11:03:35;20.91;81.08
69776;DHT22;57049;51.450;-2.516;2023-07-13T11:18:48;20.89;79.14
69776;DHT22;57049;51.450;-2.516;2023-07-13T11:21:22;20.70;77.79
69776;DHT22;57049;51.450;-2.516;2023-07-13T11:24:02;20.59;76.98
69776;DHT22;57049;51.450;-2.516;2023-07-13T11:26:51;20.83;77.30
69776;DHT22;57049;51.450;-2.516;2023-07-13T11:31:43;21.15;74.54
69776;DHT22;57049;51.450;-2.516;2023-07-13T11:34:18;21.26;74.66
69776;DHT22;57049;51.450;-2.516;2023-07-13T11:36:47;21.10;74.86
69776;DHT22;57049;51.450;-2.516;2023-07-13T11:39:17;21.04;74.22
69776;DHT22;57049;51.450;-2.516;2023-07-13T11:41:46;20.94;72.92
69776;DHT22;57049;51.450;-2.516;2023-07-13T11:44:17;20.86;73.35
69776;DHT22;57049;51.450;-2.516;2023-07-13T11:46:54;20.72;72.77
69776;DHT22;57049;51.450;-2.516;2023-07-13T11:49:23;20.62;73.58
69776;DHT22;57049;51.450;-2.516;2023-07-13T11:51:50;20.50;75.07
69776;DHT22;57049;51.450;-2.516;2023-07-13T11:54:26;20.55;74.75
69776;DHT22;57049;51.450;-2.516;2023-07-13T11:56:55;20.43;74.89
69776;DHT22;57049;51.450;-2.516;2023-07-13T11:59:22;20.36;75.90
69776;DHT22;57049;51.450;-2.516;2023-07-13T12:01:52;20.43;76.02
69776;DHT22;57049;51.450;-2.516;2023-07-13T12:04:27;20.40;75.34
69776;DHT22;57049;51.450;-2.516;2023-07-13T12:07:04;20.42;75.41
69776;DHT22;57049;51.450;-2.516;2023-07-13T12:09:32;20.25;75.64
69776;DHT22;57049;51.450;-2.516;2023-07-13T12:11:58;20.43;75.40
69776;DHT22;57049;51.450;-2.516;2023-07-13T12:14:25;20.49;74.01
69776;DHT22;57049;51.450;-2.516;2023-07-13T12:16:52;20.86;74.72
69776;DHT22;57049;51.450;-2.516;2023-07-13T12:19:28;21.20;73.62
69776;DHT22;57049;51.450;-2.516;2023-07-13T12:21:57;21.77;73.79
69776;DHT22;57049;51.450;-2.516;2023-07-13T12:24:24;21.79;73.63
69776;DHT22;57049;51.450;-2.516;2023-07-13T12:27:03;21.69;70.90
69776;DHT22;57049;51.450;-2.516;2023-07-13T12:29:30;21.65;73.53
69776;DHT22;57049;51.450;-2.516;2023-07-13T12:31:57;21.71;74.27
69776;DHT22;57049;51.450;-2.516;2023-07-13T12:34:25;21.75;72.87
69776;DHT22;57049;51.450;-2.516;2023-07-13T12:36:56;21.62;72.71
69776;DHT22;57049;51.450;-2.516;2023-07-13T12:39:36;21.41;72.69
69776;DHT22;57049;51.450;-2.516;2023-07-13T12:44:42;20.73;72.05
69776;DHT22;57049;51.450;-2.516;2023-07-13T12:47:13;20.83;74.60
69776;DHT22;57049;51.450;-2.516;2023-07-13T12:49:48;20.86;73.62
69776;DHT22;57049;51.450;-2.516;2023-07-13T12:52:20;20.83;72.89
69776;DHT22;57049;51.450;-2.516;2023-07-13T12:55:06;20.63;73.91
69776;DHT22;57049;51.450;-2.516;2023-07-13T12:57:41;20.38;74.38
69776;DHT22;57049;51.450;-2.516;2023-07-13T13:00:35;20.55;75.06
69776;DHT22;57049;51.450;-2.516;2023-07-13T13:03:10;20.56;74.90
69776;DHT22;57049;51.450;-2.516;2023-07-13T13:05:40;20.70;75.09
69776;DHT22;57049;51.450;-2.516;2023-07-13T13:08:11;20.69;74.58
69776;DHT22;57049;51.450;-2.516;2023-07-13T13:10:37;20.63;74.99
69776;DHT22;57049;51.450;-2.516;2023-07-13T13:13:02;20.72;73.92
69776;DHT22;57049;51.450;-2.516;2023-07-13T13:15:28;20.81;73.34
69776;DHT22;57049;51.450;-2.516;2023-07-13T13:17:55;20.65;73.42
69776;DHT22;57049;51.450;-2.516;2023-07-13T13:20:22;20.62;73.11
69776;DHT22;57049;51.450;-2.516;2023-07-13T13:22:48;20.63;73.05
69776;DHT22;57049;51.450;-2.516;2023-07-13T13:25:14;20.53;72.48
69776;DHT22;57049;51.450;-2.516;2023-07-13T13:27:41;20.38;71.87
69776;DHT22;57049;51.450;-2.516;2023-07-13T13:30:14;20.43;72.64
69776;DHT22;57049;51.450;-2.516;2023-07-13T13:32:42;20.36;70.06
69776;DHT22;57049;51.450;-2.516;2023-07-13T13:35:19;20.50;71.02
69776;DHT22;57049;51.450;-2.516;2023-07-13T13:37:46;20.52;70.35
69776;DHT22;57049;51.450;-2.516;2023-07-13T13:40:18;20.59;69.49
69776;DHT22;57049;51.450;-2.516;2023-07-13T13:42:44;20.67;69.28
69776;DHT22;57049;51.450;-2.516;2023-07-13T13:45:10;20.52;68.79
69776;DHT22;57049;51.450;-2.516;2023-07-13T13:47:38;20.46;69.78
69776;DHT22;57049;51.450;-2.516;2023-07-13T13:50:20;20.55;69.29
69776;DHT22;57049;51.450;-2.516;2023-07-13T13:52:48;20.81;68.46
69776;DHT22;57049;51.450;-2.516;2023-07-13T13:55:19;20.76;67.43
69776;DHT22;57049;51.450;-2.516;2023-07-13T13:57:45;20.79;65.93
69776;DHT22;57049;51.450;-2.516;2023-07-13T14:00:12;21.06;66.99
69776;DHT22;57049;51.450;-2.516;2023-07-13T14:02:41;21.04;67.18
69776;DHT22;57049;51.450;-2.516;2023-07-13T14:05:11;20.97;68.60
69776;DHT22;57049;51.450;-2.516;2023-07-13T14:07:37;21.28;68.39
69776;DHT22;57049;51.450;-2.516;2023-07-13T14:10:11;21.21;66.48
69776;DHT22;57049;51.450;-2.516;2023-07-13T14:12:37;21.04;66.39
69776;DHT22;57049;51.450;-2.516;2023-07-13T14:15:03;21.11;67.49
69776;DHT22;57049;51.450;-2.516;2023-07-13T14:17:29;21.00;65.72
69776;DHT22;57049;51.450;-2.516;2023-07-13T14:19:56;21.37;66.46
69776;DHT22;57049;51.450;-2.516;2023-07-13T14:22:26;21.62;65.52
69776;DHT22;57049;51.450;-2.516;2023-07-13T14:24:55;21.79;63.68
69776;DHT22;57049;51.450;-2.516;2023-07-13T14:27:22;21.75;62.55
69776;DHT22;57049;51.450;-2.516;2023-07-13T14:29:48;21.68;62.19
69776;DHT22;57049;51.450;-2.516;2023-07-13T14:32:14;21.52;63.01
69776;DHT22;57049;51.450;-2.516;2023-07-13T14:34:39;21.17;63.01
69776;DHT22;57049;51.450;-2.516;2023-07-13T14:37:11;21.47;65.42
69776;DHT22;57049;51.450;-2.516;2023-07-13T14:39:38;21.61;64.92
69776;DHT22;57049;51.450;-2.516;2023-07-13T14:42:04;21.65;63.50
69776;DHT22;57049;51.450;-2.516;2023-07-13T14:44:31;21.35;64.37
69776;DHT22;57049;51.450;-2.516;2023-07-13T14:46:58;21.34;65.39
69776;DHT22;57049;51.450;-2.516;2023-07-13T14:51:49;21.62;66.70
69776;DHT22;57049;51.450;-2.516;2023-07-13T14:54:14;21.68;67.21
69776;DHT22;57049;51.450;-2.516;2023-07-13T14:56:40;21.65;65.85
69776;DHT22;57049;51.450;-2.516;2023-07-13T14:59:06;21.89;66.18
69776;DHT22;57049;51.450;-2.516;2023-07-13T15:01:33;22.13;65.27
69776;DHT22;57049;51.450;-2.516;2023-07-13T15:03:59;22.05;64.30
69776;DHT22;57049;51.450;-2.516;2023-07-13T15:06:24;22.12;64.09
69776;DHT22;57049;51.450;-2.516;2023-07-13T15:08:50;22.26;64.14
69776;DHT22;57049;51.450;-2.516;2023-07-13T15:11:16;22.12;64.55
69776;DHT22;57049;51.450;-2.516;2023-07-13T15:13:42;22.02;66.13
69776;DHT22;57049;51.450;-2.516;2023-07-13T15:16:20;21.54;66.58
69776;DHT22;57049;51.450;-2.516;2023-07-13T15:18:47;21.24;66.69
69776;DHT22;57049;51.450;-2.516;2023-07-13T15:21:19;21.30;67.88
69776;DHT22;57049;51.450;-2.516;2023-07-13T15:23:45;21.63;66.27
69776;DHT22;57049;51.450;-2.516;2023-07-13T15:26:15;21.81;66.82
69776;DHT22;57049;51.450;-2.516;2023-07-13T15:28:42;21.51;66.91
69776;DHT22;57049;51.450;-2.516;2023-07-13T15:31:25;21.18;66.66
69776;DHT22;57049;51.450;-2.516;2023-07-13T15:33:55;21.37;67.48
69776;DHT22;57049;51.450;-2.516;2023-07-13T15:36:21;21.58;67.12
69776;DHT22;57049;51.450;-2.516;2023-07-13T15:38:48;21.48;67.37
69776;DHT22;57049;51.450;-2.516;2023-07-13T15:41:21;21.57;65.99
69776;DHT22;57049;51.450;-2.516;2023-07-13T15:43:49;21.44;65.93
69776;DHT22;57049;51.450;-2.516;2023-07-13T15:46:17;21.32;66.27
69776;DHT22;57049;51.450;-2.516;2023-07-13T15:48:45;21.38;66.55
69776;DHT22;57049;51.450;-2.516;2023-07-13T15:51:18;21.14;65.73
69776;DHT22;57049;51.450;-2.516;2023-07-13T15:53:45;21.20;65.56
69776;DHT22;57049;51.450;-2.516;2023-07-13T15:56:23;21.01;64.72